Laguna Beach, Missouri
Current Conditions -  °F | °C
As of 5:35 AM on Wednesday 26 Nov 2014 (Local Time) from KAIZ Reporting Station
Overcast Overcast  
Wind Chill: 24°   Ceiling: 9500
Heat Index: 32°   Visibility: 10mi
Dew Point: 19°   Wind: 10mph
Humidity: 60%   Direction: 120°ESE
Pressure: 29.98"   Gusts: NA
Location:  38.1262°N, 92.6898°W
Report Text: KAIZ 261135Z AUTO 12009KT 10SM FEW080 OVC095 00/M07 A2998 RMK AO1
Loading
Personal Weather Stations






























Interactive Weather Map New forecast layout! Learn more

10-Day Weather Forecast

Advertisements
Track Severe Weather on mobile